This is the latest recevied weather packets stored in our database for station/object LU8FJH-13. If no packets are shown the sender has not sent any weather packets the latest 10 day(s).
| Time | Temp. | Humidity | Pressure | Rain* | Wind** | Luminosity | Snow |
|---|---|---|---|---|---|---|---|
| 1777392280 | 22.78° C | 33% | 1016 hPa | 0 mm | - | - | - |
| 1777391740 | 22.78° C | 32% | 1016.1 hPa | 0 mm | - | - | - |
| 1777391200 | 22.78° C | 33% | 1016.3 hPa | 0 mm | - | - | - |
| 1777390660 | 22.22° C | 36% | 1016.4 hPa | 0 mm | - | - | - |
| 1777390120 | 21.67° C | 37% | 1016.4 hPa | 0 mm | - | - | - |
| 1777389580 | 21.67° C | 37% | 1016.3 hPa | 0 mm | - | - | - |
| 1777389040 | 21.11° C | 39% | 1016.5 hPa | 0 mm | - | - | - |
| 1777388500 | 20.56° C | 40% | 1016.7 hPa | 0 mm | - | - | - |
| 1777387960 | 20.56° C | 41% | 1016.6 hPa | 0 mm | - | - | - |
| 1777387420 | 20° C | 41% | 1016.8 hPa | 0 mm | - | - | - |
| 1777386880 | 19.44° C | 44% | 1017 hPa | 0 mm | - | - | - |
| 1777386340 | 18.89° C | 45% | 1017 hPa | 0 mm | - | - | - |
| 1777385800 | 18.33° C | 46% | 1017.1 hPa | 0 mm | - | - | - |
| 1777385260 | 17.78° C | 46% | 1017.1 hPa | 0 mm | - | - | - |
| 1777384720 | 17.22° C | 48% | 1017.2 hPa | 0 mm | - | - | - |
| 1777384180 | 16.11° C | 50% | 1017.2 hPa | 0 mm | - | - | - |
| 1777383640 | 15.56° C | 51% | 1017.4 hPa | 0 mm | - | - | - |
| 1777383100 | 15.56° C | 50% | 1017.6 hPa | 0 mm | - | - | - |
| 1777382560 | 15.56° C | 47% | 1017.8 hPa | 0 mm | - | - | - |
| 1777382020 | 15.56° C | 47% | 1017.6 hPa | 0 mm | - | - | - |
| 1777381480 | 14.44° C | 51% | 1017.6 hPa | 0 mm | - | - | - |
| 1777380940 | 13.33° C | 52% | 1017.7 hPa | 0 mm | - | - | - |
| 1777380400 | 12.78° C | 52% | 1017.6 hPa | 0 mm | - | - | - |
| 1777379860 | 12.78° C | 51% | 1017.7 hPa | 0 mm | - | - | - |
| 1777379320 | 12.78° C | 51% | 1017.9 hPa | 0 mm | - | - | - |
* Rain latest hour (hover to see other rain measurements)
** Current wind speed in m/s (hover to see current wind gust speed)